Soleil Weather Down

Nearby METAR Reports

 

KCNI - Canton/Cherokee, Georgia, USA
Distance from station: ENE 6mi, 10km
Updated: Thu, 04-Mar-2021 6:55pm EST
Clear
Clear
 Wind from NW
Wind: NW 5 mph , 7 km/h
Temperature: 61°F , 16°C
Dew Point: 27°F , -3°C
Humidity: 27%
Barometer: 30.05 inHg , 1017.6 hPa
Clouds: Clear
Visibility: 10 miles , 16 km
2021/03/04 23:55 KCNI 042355Z AUTO 32004KT 10SM CLR 16/M03 A3005 RMK AO2
KRYY - Marietta Mccolum, Georgia, USA
Distance from station: SSW 18mi, 29km
Updated: Thu, 04-Mar-2021 6:50pm EST
Clear
Clear
 Wind from varies
Wind: varies 3 mph , 6 km/h
Temperature: 63°F , 17°C
Dew Point: 30°F , -1°C
Humidity: 30%
Barometer: 30.05 inHg , 1017.6 hPa
Clouds: Clear
Visibility: 10 miles , 16 km
2021/03/04 23:50 KRYY 042350Z VRB03KT 10SM CLR 17/M01 A3005 RMK AO2 SLP897 T01671011 10194 20167 53005 $
KVPC - Cartersville, Georgia, USA
Distance from station: WSW 22mi, 35km
Updated: Thu, 04-Mar-2021 6:53pm EST
Clear
Clear
 Wind from calm
Wind: Calm
Temperature: 61°F , 16°C
Dew Point: 32°F , 0°C
Humidity: 34%
Barometer: 30.05 inHg , 1017.6 hPa
Clouds: Clear
Visibility: 10 miles , 16 km
2021/03/04 23:53 KVPC 042353Z AUTO 00000KT 10SM CLR 16/00 A3005 RMK AO2 SLP170 T01610000 10217 20161 53003
 
KMGE - Dobbins Afb/Mari, Georgia, USA
Distance from station: S 24mi, 39km
Updated: Thu, 04-Mar-2021 6:56pm EST
Clear
Clear
 Wind from NW
Wind: NW 7 mph , 11 km/h
Temperature: 63°F , 17°C
Dew Point: 28°F , -2°C
Humidity: 27%
Barometer: 30.03 inHg , 1016.9 hPa
Clouds: Clear
Visibility: 10 miles , 16 km
2021/03/04 23:56 KMGE 042356Z 32006KT 10SM CLR 17/M02 A3003 RMK AO2A SLP169 T01671024 10206 20167 53006 $
KPDK - Peachtree/Dekalb, Georgia, USA
Distance from station: SSE 29mi, 47km
Updated: Thu, 04-Mar-2021 6:53pm EST
Clear
Clear
 Wind from NW
Wind: NW 9 mph , 15 km/h
Temperature: 63°F , 17°C
Dew Point: 28°F , -2°C
Humidity: 27%
Barometer: 30.02 inHg , 1016.6 hPa
Clouds: Clear
Visibility: 10 miles , 16 km
2021/03/04 23:53 KPDK 042353Z 31008KT 10SM CLR 17/M02 A3002 RMK AO2 SLP167 T01671017 10206 20167 53007
KFTY - Atlanta/Fulton, Georgia, USA
Distance from station: S 34mi, 54km
Updated: Thu, 04-Mar-2021 6:53pm EST
Clear
Clear
 Wind from NNW
Wind: NNW 5 mph , 7 km/h
Temperature: 63°F , 17°C
Dew Point: 28°F , -2°C
Humidity: 27%
Barometer: 30.03 inHg , 1016.9 hPa
Clouds: Clear
Visibility: 10 miles , 16 km
2021/03/04 23:53 KFTY 042353Z 33004KT 10SM CLR 17/M02 A3003 RMK AO2 SLP167 T01671017 10211 20167 53006
 
KPUJ - Atlanta/Paulding, Georgia, USA
Distance from station: SW 34mi, 55km
Updated: Thu, 04-Mar-2021 6:55pm EST
Clear
Clear
 Wind from NNE
Wind: NNE 5 mph , 7 km/h
Temperature: 59°F , 15°C
Dew Point: 32°F , 0°C
Humidity: 36%
Barometer: 30.04 inHg , 1017.3 hPa
Clouds: Clear
Visibility: 10 miles , 16 km
2021/03/04 23:55 KPUJ 042355Z AUTO 02004KT 10SM CLR 15/00 A3004 RMK AO2
KDNN - Dalton, Georgia, USA
Distance from station: NW 37mi, 59km
Updated: Thu, 04-Mar-2021 6:55pm EST
Clear
Clear
 Wind from N
Wind: N 5 mph , 7 km/h
Temperature: 63°F , 17°C
Dew Point: 23°F , -5°C
Humidity: 22%
Barometer: 30.06 inHg , 1017.9 hPa
Clouds: Clear
Visibility: 10 miles , 16 km
2021/03/04 23:55 KDNN 042355Z AUTO 35004KT 10SM CLR 17/M05 A3006 RMK AO2
KLZU - Lawrenceville, Georgia, USA
Distance from station: ESE 37mi, 59km
Updated: Thu, 04-Mar-2021 6:56pm EST
Clear
Clear
 Wind from calm
Wind: Calm
Temperature: 63°F , 17°C
Dew Point: 27°F , -3°C
Humidity: 25%
Barometer: 30.01 inHg , 1016.3 hPa
Clouds: Clear
Visibility: 10 miles , 16 km
2021/03/04 23:56 KLZU 042356Z 00000KT 10SM CLR 17/M03 A3001 RMK AO2 SLP173 60001 T01671033 10217 20167 53010
 
KRMG - Rome, Georgia, USA
Distance from station: W 38mi, 61km
Updated: Thu, 04-Mar-2021 6:53pm EST
Clear
Clear
 Wind from N
Wind: N 5 mph , 7 km/h
Temperature: 64°F , 18°C
Dew Point: 28°F , -2°C
Humidity: 26%
Barometer: 30.03 inHg , 1016.9 hPa
Clouds: Clear
Visibility: 10 miles , 16 km
2021/03/04 23:53 KRMG 042353Z AUTO 01004KT 10SM CLR 18/M02 A3003 RMK AO2 SLP165 T01781017 10222 20178 53004 $
KGVL - Gainesville, Georgia, USA
Distance from station: E 39mi, 62km
Updated: Thu, 04-Mar-2021 6:53pm EST
Clear
Clear
 Wind from NNW
Wind: NNW 13 mph , 20 km/h, Gust: 23 mph , 37 km/h
Temperature: 63°F , 17°C
Dew Point: 25°F , -4°C
Humidity: 24%
Barometer: 30.03 inHg , 1016.9 hPa
Clouds: Clear
Visibility: 10 miles , 16 km
2021/03/04 23:53 KGVL 042353Z AUTO 33011G20KT 10SM CLR 17/M04 A3003 RMK AO2 SLP164 T01671039 10217 20167 53012
KATL - Atlanta, Georgia, USA
Distance from station: S 44mi, 71km
Updated: Thu, 04-Mar-2021 6:52pm EST
Clear
Clear
 Wind from NNW
Wind: NNW 15 mph , 24 km/h, Gust: 24 mph , 39 km/h
Temperature: 63°F , 17°C
Dew Point: 30°F , -1°C
Humidity: 30%
Barometer: 30.03 inHg , 1016.9 hPa
Clouds: Clear
Visibility: 10 miles , 16 km
2021/03/04 23:52 KATL 042352Z 33013G21KT 10SM CLR 17/M01 A3003 RMK AO2 SLP168 T01721011 10211 20172 53005